createdAt,value
2018-07-12T00:02:29.516Z,17.00
2018-07-12T00:04:57.424Z,17.00
2018-07-12T00:07:25.302Z,17.10
2018-07-12T00:09:53.185Z,17.10
2018-07-12T00:12:21.078Z,17.10
2018-07-12T00:14:49.026Z,16.90
2018-07-12T00:17:16.873Z,16.90
2018-07-12T00:19:44.783Z,16.80
2018-07-12T00:22:12.660Z,16.80
2018-07-12T00:24:40.583Z,16.70
2018-07-12T00:27:08.461Z,16.70
2018-07-12T00:29:36.338Z,16.70
2018-07-12T00:32:04.198Z,16.80
2018-07-12T00:34:32.051Z,16.80
2018-07-12T00:36:59.932Z,17.00
2018-07-12T00:39:27.835Z,17.10
2018-07-12T00:41:55.774Z,17.00
2018-07-12T00:44:23.700Z,16.90
2018-07-12T00:46:51.603Z,16.80
2018-07-12T00:49:19.483Z,16.70
2018-07-12T00:51:47.373Z,16.60
2018-07-12T00:54:15.211Z,16.50
2018-07-12T00:56:43.083Z,16.50
2018-07-12T00:59:11.295Z,16.60
2018-07-12T01:01:39.192Z,16.60
2018-07-12T01:04:07.104Z,16.60
2018-07-12T01:06:34.982Z,16.70
2018-07-12T01:09:02.930Z,16.80
2018-07-12T01:11:30.808Z,16.90
2018-07-12T01:13:58.676Z,16.90
2018-07-12T01:16:26.737Z,17.00
2018-07-12T01:18:54.663Z,17.00
2018-07-12T01:21:22.479Z,16.90
2018-07-12T01:23:50.340Z,16.90
2018-07-12T01:26:18.218Z,16.80
2018-07-12T01:28:46.094Z,16.70
2018-07-12T01:31:13.985Z,16.80
2018-07-12T01:33:41.875Z,16.90
2018-07-12T01:36:09.788Z,16.70
2018-07-12T01:38:37.635Z,16.60
2018-07-12T01:41:05.489Z,16.70
2018-07-12T01:43:33.366Z,16.70
2018-07-12T01:46:01.222Z,16.50
2018-07-12T01:48:29.386Z,16.50
2018-07-12T01:50:57.243Z,16.50
2018-07-12T01:53:25.182Z,16.50
2018-07-12T01:55:53.098Z,16.50
2018-07-12T01:58:20.986Z,16.50
2018-07-12T02:00:49.003Z,16.40
2018-07-12T02:03:17.116Z,16.30
2018-07-12T02:05:45.019Z,16.40
2018-07-12T02:08:12.939Z,16.30
2018-07-12T02:10:40.845Z,16.20
2018-07-12T02:13:08.802Z,16.30
2018-07-12T02:15:36.646Z,16.30
2018-07-12T02:18:04.541Z,16.40
2018-07-12T02:20:32.385Z,16.50
2018-07-12T02:23:00.241Z,16.50
2018-07-12T02:25:28.205Z,16.30
2018-07-12T02:27:56.111Z,16.10
2018-07-12T02:30:23.971Z,15.90
2018-07-12T02:32:51.849Z,15.80
2018-07-12T02:35:19.784Z,15.60
2018-07-12T02:37:47.711Z,15.60
2018-07-12T02:40:15.572Z,15.70
2018-07-12T02:42:43.452Z,15.80
2018-07-12T02:45:11.304Z,15.90
2018-07-12T02:47:39.305Z,16.10
2018-07-12T02:50:07.222Z,16.10
2018-07-12T02:52:35.093Z,16.10
2018-07-12T02:55:02.987Z,16.10
2018-07-12T02:57:30.851Z,15.90
2018-07-12T02:59:58.695Z,15.70
2018-07-12T03:02:26.571Z,15.80
2018-07-12T03:04:54.446Z,15.90
2018-07-12T03:07:22.370Z,15.70
2018-07-12T03:09:50.275Z,15.40
2018-07-12T03:12:18.162Z,15.20
2018-07-12T03:14:46.035Z,15.30
2018-07-12T03:17:13.909Z,15.50
2018-07-12T03:19:41.787Z,15.40
2018-07-12T03:22:09.640Z,15.30
2018-07-12T03:24:37.520Z,15.30
2018-07-12T03:27:05.391Z,15.50
2018-07-12T03:29:33.268Z,15.60
2018-07-12T03:32:01.138Z,15.60
2018-07-12T03:34:29.036Z,15.30
2018-07-12T03:36:56.921Z,15.10
2018-07-12T03:39:24.801Z,15.00
2018-07-12T03:41:52.650Z,15.00
2018-07-12T03:44:20.531Z,15.10
2018-07-12T03:46:48.426Z,15.00
2018-07-12T03:49:16.372Z,15.10
2018-07-12T03:51:44.226Z,15.40
2018-07-12T03:54:12.115Z,15.50
2018-07-12T03:56:39.987Z,15.50
2018-07-12T03:59:07.899Z,15.60
2018-07-12T04:01:35.748Z,15.70
2018-07-12T04:04:03.651Z,15.70
2018-07-12T04:06:31.514Z,15.70
2018-07-12T04:08:59.393Z,15.90
2018-07-12T04:11:27.335Z,15.90
2018-07-12T04:13:55.218Z,15.90
2018-07-12T04:16:23.164Z,15.90
2018-07-12T04:18:51.077Z,15.80
2018-07-12T04:21:18.987Z,15.80
2018-07-12T04:23:46.991Z,15.80
2018-07-12T04:26:14.957Z,15.80
2018-07-12T04:28:42.814Z,15.70
2018-07-12T04:31:10.670Z,15.60
2018-07-12T04:33:38.604Z,15.50
2018-07-12T04:36:06.561Z,15.50
2018-07-12T04:38:34.430Z,15.60
2018-07-12T04:41:02.296Z,15.70
2018-07-12T04:43:30.185Z,15.70
2018-07-12T04:45:58.086Z,15.60
2018-07-12T04:48:26.018Z,15.60
2018-07-12T04:50:53.890Z,15.50
2018-07-12T04:53:21.931Z,15.60
2018-07-12T04:55:49.822Z,15.70
2018-07-12T04:58:17.791Z,15.70
2018-07-12T05:00:45.584Z,15.60
2018-07-12T05:03:13.474Z,15.60
2018-07-12T05:05:41.370Z,15.60
2018-07-12T05:08:09.252Z,15.60
2018-07-12T05:10:37.124Z,15.80
2018-07-12T05:13:05.054Z,15.90
2018-07-12T05:15:36.759Z,15.90
2018-07-12T05:18:04.615Z,15.90
2018-07-12T05:20:32.566Z,16.10
2018-07-12T05:23:00.481Z,16.10
2018-07-12T05:25:28.410Z,16.10
2018-07-12T05:27:56.346Z,16.20
2018-07-12T05:30:24.214Z,16.30
2018-07-12T05:32:52.057Z,16.40
2018-07-12T05:35:19.994Z,16.50
2018-07-12T05:37:50.488Z,16.60
2018-07-12T05:40:20.280Z,16.60
2018-07-12T05:42:50.370Z,16.60
2018-07-12T05:45:20.267Z,16.60
2018-07-12T05:47:50.013Z,16.40
2018-07-12T05:50:19.848Z,16.40
2018-07-12T05:52:49.599Z,16.50
2018-07-12T05:55:19.538Z,16.50
2018-07-12T05:57:49.276Z,16.50
2018-07-12T06:00:19.055Z,16.50
2018-07-12T06:02:48.857Z,16.50
2018-07-12T06:05:18.747Z,16.60
2018-07-12T06:07:48.562Z,16.50
2018-07-12T06:10:18.363Z,16.40
2018-07-12T06:12:48.230Z,16.60
2018-07-12T06:15:18.420Z,16.80
2018-07-12T06:17:48.462Z,16.80
2018-07-12T06:20:18.471Z,16.70
2018-07-12T06:22:48.254Z,16.60
2018-07-12T06:25:18.309Z,16.80
2018-07-12T06:27:48.660Z,16.90
2018-07-12T06:30:18.566Z,17.00
2018-07-12T06:32:48.311Z,17.10
2018-07-12T06:35:18.198Z,17.20
2018-07-12T06:37:48.046Z,17.10
2018-07-12T06:40:17.950Z,16.90
2018-07-12T06:42:47.878Z,16.90
2018-07-12T06:45:17.802Z,17.00
2018-07-12T06:47:47.833Z,16.90
2018-07-12T06:50:17.870Z,16.90
2018-07-12T06:52:47.923Z,17.00
2018-07-12T06:55:17.855Z,17.20
2018-07-12T06:57:47.787Z,17.20
2018-07-12T07:00:17.719Z,17.30
2018-07-12T07:02:47.474Z,17.50
2018-07-12T07:05:17.234Z,17.50
2018-07-12T07:07:47.310Z,17.50
2018-07-12T07:10:17.158Z,17.50
2018-07-12T07:12:47.031Z,17.40
2018-07-12T07:15:16.995Z,17.20
2018-07-12T07:17:47.038Z,17.40
2018-07-12T07:20:17.137Z,17.40
2018-07-12T07:22:47.034Z,17.50
2018-07-12T07:25:17.022Z,17.50
2018-07-12T07:27:47.031Z,17.50
2018-07-12T07:30:16.764Z,17.60
2018-07-12T07:32:46.834Z,17.60
2018-07-12T07:35:16.850Z,17.70
2018-07-12T07:37:46.950Z,17.60
2018-07-12T07:40:16.742Z,17.40
2018-07-12T07:42:46.510Z,17.60
2018-07-12T07:45:16.556Z,17.70
2018-07-12T07:47:46.327Z,17.70
2018-07-12T07:50:16.290Z,17.80
2018-07-12T07:52:46.221Z,17.80
2018-07-12T07:55:16.260Z,17.90
2018-07-12T07:57:46.165Z,17.90
2018-07-12T08:00:16.225Z,18.10
2018-07-12T08:02:45.960Z,18.20
2018-07-12T08:05:16.134Z,18.20
2018-07-12T08:07:46.416Z,18.10
2018-07-12T08:10:16.438Z,17.90
2018-07-12T08:12:46.295Z,18.10
2018-07-12T08:15:16.189Z,18.10
2018-07-12T08:17:46.123Z,18.20
2018-07-12T08:20:16.083Z,18.30
2018-07-12T08:22:46.735Z,18.30
2018-07-12T08:25:16.520Z,18.30
2018-07-12T08:28:02.768Z,18.30
2018-07-12T08:30:32.539Z,18.50
2018-07-12T08:33:02.310Z,18.50
2018-07-12T08:35:32.270Z,18.60
2018-07-12T08:38:01.983Z,18.80
2018-07-12T08:40:31.970Z,18.80
2018-07-12T08:43:01.800Z,19.00
2018-07-12T08:45:31.562Z,19.10
2018-07-12T08:48:01.306Z,19.30
2018-07-12T08:50:31.266Z,19.30
2018-07-12T08:53:01.261Z,19.10
2018-07-12T08:55:30.980Z,19.40
2018-07-12T08:58:00.795Z,19.40
2018-07-12T09:00:30.742Z,19.50
2018-07-12T09:03:00.625Z,19.70
2018-07-12T09:05:30.527Z,19.90
2018-07-12T09:08:00.353Z,20.00
2018-07-12T09:10:30.144Z,20.20
2018-07-12T09:12:59.914Z,20.10
2018-07-12T09:15:29.686Z,20.20
2018-07-12T09:17:59.384Z,20.40
2018-07-12T09:20:29.492Z,20.50
2018-07-12T09:22:59.306Z,20.60
2018-07-12T09:25:29.228Z,20.80
2018-07-12T09:27:58.997Z,20.90
2018-07-12T09:30:28.688Z,21.00
2018-07-12T09:32:58.422Z,21.20
2018-07-12T09:35:28.166Z,21.20
2018-07-12T09:37:57.978Z,21.30
2018-07-12T09:40:27.796Z,21.50
2018-07-12T09:42:57.599Z,21.90
2018-07-12T09:45:27.499Z,22.30
2018-07-12T09:47:57.375Z,22.50
2018-07-12T09:50:27.214Z,22.50
2018-07-12T09:52:57.200Z,22.50
2018-07-12T09:55:27.217Z,22.70
2018-07-12T09:58:13.379Z,22.50
2018-07-12T10:00:48.570Z,22.60
2018-07-12T10:03:20.474Z,22.60
2018-07-12T10:05:55.337Z,23.00
2018-07-12T10:08:30.270Z,23.10
2018-07-12T10:11:05.118Z,22.90
2018-07-12T10:13:39.978Z,23.10
2018-07-12T10:16:14.921Z,23.10
2018-07-12T10:18:50.342Z,23.00
2018-07-12T10:21:20.203Z,23.10
2018-07-12T10:23:50.102Z,23.40
2018-07-12T10:26:20.144Z,23.30
2018-07-12T10:28:49.919Z,23.60
2018-07-12T10:31:19.911Z,24.00
2018-07-12T10:33:49.652Z,24.10
2018-07-12T10:36:19.738Z,24.20
2018-07-12T10:38:49.666Z,24.10
2018-07-12T10:41:23.767Z,23.90
2018-07-12T10:43:53.535Z,23.80
2018-07-12T10:49:20.849Z,24.00
2018-07-12T10:51:50.711Z,24.50
2018-07-12T10:54:20.678Z,24.70
2018-07-12T10:56:50.526Z,24.40
2018-07-12T10:59:20.383Z,24.20
2018-07-12T11:01:50.167Z,24.10
2018-07-12T11:04:20.016Z,24.20
2018-07-12T11:06:49.819Z,24.10
2018-07-12T11:09:19.844Z,24.30
2018-07-12T11:11:49.687Z,24.80
2018-07-12T11:14:19.542Z,25.00
2018-07-12T11:16:49.606Z,24.70
2018-07-12T11:19:19.501Z,24.50
2018-07-12T11:21:49.451Z,24.30
2018-07-12T11:24:19.195Z,24.40
2018-07-12T11:26:49.110Z,24.60
2018-07-12T11:29:22.606Z,24.80
2018-07-12T11:31:52.424Z,25.40
2018-07-12T11:34:22.519Z,25.90
2018-07-12T11:36:52.244Z,26.10
2018-07-12T11:39:22.033Z,26.50
2018-07-12T11:41:52.307Z,26.00
2018-07-12T11:44:22.742Z,25.60
2018-07-12T11:46:52.445Z,25.00
2018-07-12T11:49:22.323Z,25.10
2018-07-12T11:51:52.513Z,24.80
2018-07-12T11:54:22.382Z,24.30
2018-07-12T11:56:52.252Z,24.20
2018-07-12T11:59:22.153Z,24.70
2018-07-12T12:01:52.042Z,25.50
2018-07-12T12:04:21.775Z,25.70
2018-07-12T12:06:51.558Z,25.30
2018-07-12T12:09:21.372Z,25.80
2018-07-12T12:11:51.322Z,26.10
2018-07-12T12:14:21.336Z,25.70
2018-07-12T12:16:51.234Z,26.10
2018-07-12T12:19:21.421Z,26.40
2018-07-12T12:21:51.555Z,26.60
2018-07-12T12:24:21.623Z,26.30
2018-07-12T12:26:51.470Z,26.30
2018-07-12T12:29:21.402Z,26.40
2018-07-12T12:31:51.425Z,26.70
2018-07-12T12:34:21.315Z,26.50
2018-07-12T12:36:51.078Z,26.50
2018-07-12T12:39:20.942Z,26.80
2018-07-12T12:41:50.805Z,27.10
2018-07-12T12:44:20.774Z,27.30
2018-07-12T12:46:50.828Z,27.80
2018-07-12T12:49:20.625Z,27.60
2018-07-12T12:51:50.465Z,27.50
2018-07-12T12:54:20.246Z,27.60
2018-07-12T12:56:50.652Z,27.60
2018-07-12T12:59:20.619Z,27.90
2018-07-12T13:01:50.470Z,27.70
2018-07-12T13:04:20.406Z,28.50
2018-07-12T13:06:50.242Z,28.30
2018-07-12T13:09:20.236Z,27.90
2018-07-12T13:11:50.215Z,28.20
2018-07-12T13:14:20.227Z,27.50
2018-07-12T13:16:49.969Z,27.90
2018-07-12T13:19:19.851Z,27.40
2018-07-12T13:21:49.746Z,27.30
2018-07-12T13:24:19.492Z,26.70
2018-07-12T13:26:49.239Z,27.20
2018-07-12T13:29:19.158Z,27.30
2018-07-12T13:31:49.073Z,27.70
2018-07-12T13:34:18.909Z,28.60
2018-07-12T13:36:48.757Z,28.70
2018-07-12T13:39:19.402Z,29.00
2018-07-12T13:41:49.197Z,29.00
2018-07-12T13:44:23.734Z,28.90
2018-07-12T13:46:54.573Z,29.10
2018-07-12T13:49:24.228Z,29.30
2018-07-12T13:51:54.097Z,29.40
2018-07-12T13:54:23.834Z,29.10
2018-07-12T13:56:53.511Z,28.80
2018-07-12T13:59:23.407Z,28.60
2018-07-12T14:01:53.161Z,28.80
2018-07-12T14:04:22.786Z,28.60
2018-07-12T14:06:52.509Z,29.20
2018-07-12T14:09:22.165Z,29.30
2018-07-12T14:11:51.845Z,29.20
2018-07-12T14:14:21.550Z,29.30
2018-07-12T14:16:51.264Z,29.60
2018-07-12T14:19:20.960Z,30.00
2018-07-12T14:21:50.742Z,29.80
2018-07-12T14:24:20.500Z,29.70
2018-07-12T14:26:50.343Z,29.80
2018-07-12T14:29:20.131Z,29.80
2018-07-12T14:31:49.830Z,30.40
2018-07-12T14:34:20.631Z,30.90
2018-07-12T14:36:50.367Z,30.90
2018-07-12T14:39:20.109Z,30.00
2018-07-12T14:41:49.822Z,29.70
2018-07-12T14:44:19.523Z,29.50
2018-07-12T14:46:49.322Z,29.20
2018-07-12T14:49:19.008Z,29.00
2018-07-12T14:51:48.741Z,28.60
2018-07-12T14:54:18.449Z,28.30
2018-07-12T14:56:48.176Z,27.80
2018-07-12T14:59:17.911Z,27.60
2018-07-12T15:01:47.637Z,27.60
2018-07-12T15:04:17.319Z,27.40
2018-07-12T15:06:47.038Z,27.30
2018-07-12T15:09:17.178Z,27.20
2018-07-12T15:11:46.995Z,27.10
2018-07-12T15:14:16.790Z,27.10
2018-07-12T15:16:47.561Z,27.30
2018-07-12T15:19:17.362Z,27.40
2018-07-12T15:21:47.050Z,27.70
2018-07-12T15:24:16.825Z,28.00
2018-07-12T15:26:46.534Z,28.20
2018-07-12T15:29:16.314Z,28.10
2018-07-12T15:31:45.965Z,28.20
2018-07-12T15:34:17.715Z,28.40
2018-07-12T15:36:47.534Z,28.50
2018-07-12T15:39:31.390Z,28.70
2018-07-12T15:42:17.095Z,29.20
2018-07-12T15:44:46.822Z,29.10
2018-07-12T15:47:16.581Z,29.00
2018-07-12T15:49:46.355Z,29.30
2018-07-12T15:52:16.488Z,29.70
2018-07-12T15:54:46.217Z,29.50
2018-07-12T15:57:15.988Z,29.90
2018-07-12T15:59:45.668Z,30.00
2018-07-12T16:02:15.519Z,30.00
2018-07-12T16:04:45.360Z,30.30
2018-07-12T16:07:16.372Z,30.10
2018-07-12T16:09:46.109Z,30.10
2018-07-12T16:12:18.634Z,29.50
2018-07-12T16:14:54.300Z,29.50
2018-07-12T16:17:24.129Z,29.70
2018-07-12T16:19:53.926Z,29.40
2018-07-12T16:22:23.629Z,29.60
2018-07-12T16:24:53.237Z,29.80
2018-07-12T16:27:22.973Z,30.00
2018-07-12T16:29:52.769Z,29.90
2018-07-12T16:32:24.714Z,29.90
2018-07-12T16:34:55.589Z,29.80
2018-07-12T16:37:25.354Z,29.80
2018-07-12T16:39:55.133Z,29.90
2018-07-12T16:42:24.873Z,30.10
2018-07-12T16:44:54.602Z,29.50
2018-07-12T16:47:24.343Z,29.60
2018-07-12T16:49:54.138Z,29.50
2018-07-12T16:52:25.261Z,29.30
2018-07-12T16:54:55.337Z,29.00
2018-07-12T16:57:25.602Z,28.60
2018-07-12T17:00:20.818Z,28.30
2018-07-12T17:02:51.195Z,28.10
2018-07-12T17:05:20.958Z,28.20
2018-07-12T17:07:51.110Z,28.10
2018-07-12T17:10:22.015Z,27.90
2018-07-12T17:12:52.066Z,27.90
2018-07-12T17:15:21.825Z,28.00
2018-07-12T17:17:51.904Z,28.00
2018-07-12T17:20:22.251Z,28.20
2018-07-12T17:22:52.410Z,28.10
2018-07-12T17:25:22.953Z,28.20
2018-07-12T17:27:52.812Z,28.20
2018-07-12T17:30:23.786Z,27.90
2018-07-12T17:32:53.835Z,27.70
2018-07-12T17:35:29.642Z,27.30
2018-07-12T17:38:01.514Z,27.10
2018-07-12T17:40:33.325Z,26.90
2018-07-12T17:43:04.295Z,26.70
2018-07-12T17:45:36.092Z,26.60
2018-07-12T17:48:06.940Z,26.60
2018-07-12T17:50:40.790Z,26.50
2018-07-12T17:53:10.669Z,26.40
2018-07-12T17:55:40.456Z,26.20
2018-07-12T17:58:10.311Z,26.10
2018-07-12T18:00:40.581Z,25.90
2018-07-12T18:03:10.858Z,25.80
2018-07-12T18:05:45.485Z,25.80
2018-07-12T18:08:15.297Z,25.60
2018-07-12T18:10:46.196Z,25.40
2018-07-12T18:13:16.373Z,25.10
2018-07-12T18:15:46.183Z,25.10
2018-07-12T18:18:15.973Z,25.10
2018-07-12T18:20:46.379Z,25.10
2018-07-12T18:23:16.270Z,25.00
2018-07-12T18:25:46.259Z,24.90
2018-07-12T18:28:15.962Z,24.90
2018-07-12T18:30:45.956Z,25.00
2018-07-12T18:33:16.350Z,24.90
2018-07-12T18:35:46.070Z,24.80
2018-07-12T18:38:15.779Z,24.70
2018-07-12T18:40:46.023Z,24.60
2018-07-12T18:43:16.091Z,24.50
2018-07-12T18:45:47.860Z,24.40
2018-07-12T18:48:28.032Z,24.50
2018-07-12T18:50:58.041Z,24.50
2018-07-12T18:53:27.717Z,24.30
2018-07-12T18:55:57.567Z,24.20
2018-07-12T18:58:27.437Z,23.90
2018-07-12T19:00:57.475Z,23.90
2018-07-12T19:03:27.519Z,23.80
2018-07-12T19:05:57.564Z,23.80
2018-07-12T19:08:27.646Z,23.60
2018-07-12T19:10:57.688Z,23.50
2018-07-12T19:13:27.408Z,23.30
2018-07-12T19:15:57.581Z,23.10
2018-07-12T19:18:27.362Z,23.10
2018-07-12T19:20:58.317Z,22.90
2018-07-12T19:23:28.198Z,22.80
2018-07-12T19:25:58.318Z,22.70
2018-07-12T19:28:28.544Z,22.70
2018-07-12T19:30:58.275Z,22.90
2018-07-12T19:33:30.134Z,23.20
2018-07-12T19:35:59.790Z,23.30
2018-07-12T19:38:29.477Z,23.00
2018-07-12T19:41:06.113Z,22.80
2018-07-12T19:43:35.825Z,22.60
2018-07-12T19:46:05.591Z,22.50
2018-07-12T19:48:35.419Z,22.40
2018-07-12T19:51:05.478Z,22.40
2018-07-12T19:53:37.611Z,22.30
2018-07-12T19:56:07.767Z,22.40
2018-07-12T19:58:37.822Z,22.60
2018-07-12T20:01:07.650Z,22.60
2018-07-12T20:03:37.803Z,22.50
2018-07-12T20:06:07.779Z,22.20
2018-07-12T20:08:37.502Z,22.20
2018-07-12T20:11:07.246Z,22.20
2018-07-12T20:13:37.407Z,22.20
2018-07-12T20:16:07.157Z,22.60
2018-07-12T20:18:36.859Z,22.90
2018-07-12T20:21:18.938Z,22.90
2018-07-12T20:23:48.652Z,22.50
2018-07-12T20:26:18.722Z,22.20
2018-07-12T20:28:52.445Z,22.10
2018-07-12T20:31:22.334Z,21.90
2018-07-12T20:33:52.229Z,21.80
2018-07-12T20:36:22.094Z,21.90
2018-07-12T20:38:52.090Z,21.80
2018-07-12T20:41:21.988Z,21.70
2018-07-12T20:43:56.043Z,21.70
2018-07-12T20:46:26.110Z,21.80
2018-07-12T20:48:55.826Z,21.60
2018-07-12T20:51:26.030Z,21.50
2018-07-12T20:53:56.011Z,21.20
2018-07-12T20:56:26.010Z,21.10
2018-07-12T20:58:55.853Z,21.00
2018-07-12T21:01:25.535Z,20.90
2018-07-12T21:03:55.195Z,20.80
2018-07-12T21:06:24.961Z,20.80
2018-07-12T21:08:54.867Z,20.70
2018-07-12T21:11:24.546Z,20.80
2018-07-12T21:13:54.346Z,20.80
2018-07-12T21:16:24.055Z,21.20
2018-07-12T21:18:54.007Z,21.00
2018-07-12T21:21:23.689Z,21.30
2018-07-12T21:23:53.345Z,21.40
2018-07-12T21:26:23.054Z,21.50
2018-07-12T21:28:53.248Z,21.50
2018-07-12T21:31:23.103Z,21.60
2018-07-12T21:33:52.796Z,21.50
2018-07-12T21:36:27.328Z,21.30
2018-07-12T21:38:57.281Z,20.70
2018-07-12T21:41:27.166Z,20.50
2018-07-12T21:43:56.853Z,20.30
2018-07-12T21:46:26.882Z,20.10
2018-07-12T21:48:56.554Z,19.90
2018-07-12T21:51:30.107Z,20.00
2018-07-12T21:53:59.926Z,20.10
2018-07-12T21:56:29.796Z,20.50
2018-07-12T21:58:59.482Z,20.50
2018-07-12T22:01:29.110Z,20.40
2018-07-12T22:03:58.753Z,20.60
2018-07-12T22:07:21.648Z,20.40
2018-07-12T22:09:51.339Z,20.30
2018-07-12T22:12:21.056Z,19.80
2018-07-12T22:14:50.971Z,19.50
2018-07-12T22:17:21.844Z,19.70
2018-07-12T22:19:51.829Z,20.20
2018-07-12T22:22:21.461Z,20.10
2018-07-12T22:24:51.187Z,20.20
2018-07-12T22:27:21.200Z,20.00
2018-07-12T22:29:51.130Z,19.90
2018-07-12T22:32:20.810Z,20.20
2018-07-12T22:34:50.723Z,20.30
2018-07-12T22:37:20.591Z,19.70
2018-07-12T22:39:50.446Z,19.50
2018-07-12T22:42:20.097Z,19.10
2018-07-12T22:44:49.879Z,18.80
2018-07-12T22:47:19.549Z,18.80
2018-07-12T22:49:49.212Z,19.10
2018-07-12T22:52:21.853Z,19.30
2018-07-12T22:54:51.785Z,19.30
2018-07-12T22:57:21.422Z,19.80
2018-07-12T22:59:51.215Z,19.30
2018-07-12T23:02:21.127Z,19.60
2018-07-12T23:04:50.781Z,19.20
2018-07-12T23:07:20.460Z,18.90
2018-07-12T23:09:50.308Z,18.90
2018-07-12T23:12:19.958Z,18.70
2018-07-12T23:14:49.698Z,18.40
2018-07-12T23:17:19.346Z,18.50
2018-07-12T23:19:49.036Z,18.60
2018-07-12T23:22:18.694Z,18.50
2018-07-12T23:24:48.986Z,18.90
2018-07-12T23:27:19.000Z,19.30
2018-07-12T23:29:48.674Z,19.00
2018-07-12T23:32:18.641Z,18.50
2018-07-12T23:34:48.890Z,18.70
2018-07-12T23:37:18.647Z,18.60
2018-07-12T23:39:48.290Z,18.20
2018-07-12T23:42:17.970Z,18.50
2018-07-12T23:44:47.834Z,18.50
2018-07-12T23:47:17.977Z,18.60
2018-07-12T23:49:47.705Z,18.90
2018-07-12T23:52:17.333Z,18.80
2018-07-12T23:54:47.788Z,18.90
2018-07-12T23:57:17.645Z,18.80
2018-07-12T23:59:47.301Z,18.80
